Wilfred Sykes — WC5932 — position and weather

sailwx.info

Track history (hours):
 
Tides and Currents Weather Stations Pressure Air Temp Water Temp Dewpoint Dewpoint Depression Visibility Wind Speed Wind Dir Waves Ship Positions

Wilfred Sykes

Owner: CENTRAL MARINE LOGISTICS, INC, GRIFFITH, IN. More information available from US FCC via Universal Licensing System and Coast Guard Vessel Documentation Center.

Last reported at 2018-Jul-15 12:46 UTC. Time now 2018-Jul-17 13:36 UTC.
Position N 46°30' W 084°36'.

Length 219 m; draft 6.2 m.

Type: Cargo ship. MMSI: 367909800.

Date/timePositionNaut miles runAvg speedWind from/ knotsBaromVisibWave heightAir tempDewpointWater temp
2018-Jul-15 12:46N 46°30' W 084°36'310.6
2018-Jul-15 12:28N 46°28' W 084°33'4 7.8
2018-Jul-15 11:58N 46°28' W 084°28'20 4.7
2018-Jul-15 07:46N 46°15' W 084°06'2 7.9
2018-Jul-15 07:30N 46°13' W 084°07'5 9.1
2018-Jul-15 07:00N 46°09' W 084°03'8 9.4
2018-Jul-15 06:12N 46°03' W 083°57'5 9.3
2018-Jul-15 05:43N 45°60' W 083°53'211.3
2018-Jul-15 05:30N 45°57' W 083°54'511.0
2018-Jul-15 05:00N 45°54' W 083°60'611.8
2018-Jul-15 04:30N 45°51' W 084°07'611.8
2018-Jul-15 04:00N 45°51' W 084°16'611.9
2018-Jul-15 03:30N 45°51' W 084°24'611.6
2018-Jul-15 02:59N 45°51' W 084°33'611.3
2018-Jul-15 02:27N 45°49' W 084°41'511.4
2018-Jul-15 02:00N 45°49' W 084°49'1311.4
2018-Jul-15 00:53N 45°50' W 085°07'4 9.9
2018-Jul-15 00:29N 45°46' W 085°09'510.8
2018-Jul-14 23:59N 45°42' W 085°13'611.3
2018-Jul-14 23:30N 45°38' W 085°18'611.3
2018-Jul-14 22:59N 45°33' W 085°23'511.3
2018-Jul-14 22:30N 45°29' W 085°28'611.4
2018-Jul-14 22:00N 45°24' W 085°32'611.7
2018-Jul-14 21:30N 45°19' W 085°37'611.8
2018-Jul-14 21:00N 45°14' W 085°42'611.7
2018-Jul-14 20:30N 45°10' W 085°47'611.5
2018-Jul-14 20:00N 45°05' W 085°52'214 8.5
2018-Jul-13 19:00N 41°42' W 087°24'0 0.0 230 / 13997.2
2018-Jul-13 18:00N 41°42' W 087°24'0 0.0 230 / 15996.0
2018-Jul-13 17:00N 41°42' W 087°24'0 0.0 230 / 14996.0
2018-Jul-13 16:00N 41°42' W 087°24'0 0.0 190 / 16996.3
2018-Jul-13 15:00N 41°42' W 087°24'0 0.0 200 / 161000.6
2018-Jul-13 14:00N 41°42' W 087°24'7 7.5 210 / 17998.8
2018-Jul-13 13:00N 41°48' W 087°30'1312.8 170 / 17999.3
2018-Jul-13 12:00N 42°00' W 087°24'6 6.0 170 / 171001.0
2018-Jul-13 11:00N 42°06' W 087°24'8610.7 180 / 20998.4
2018-Jul-13 03:00N 43°24' W 086°36'6 6.0 140 / 231002.0
2018-Jul-13 02:00N 43°30' W 086°36'1212.0 150 / 271003.0
2018-Jul-13 01:00N 43°42' W 086°36'1212.0 160 / 281003.5
2018-Jul-13 00:00N 43°54' W 086°36'6 6.0 160 / 271004.3
2018-Jul-12 23:00N 44°00' W 086°36'1312.8 160 / 281003.9
2018-Jul-12 22:00N 44°12' W 086°30'1312.7 160 / 231004.8
2018-Jul-12 21:00N 44°24' W 086°24'6 6.0 160 / 291005.0
2018-Jul-12 20:00N 44°30' W 086°24'1312.7 170 / 341004.1
2018-Jul-12 19:00N 44°42' W 086°18'1212.0 180 / 291005.7
2018-Jul-12 18:00N 44°54' W 086°18'1312.7 140 / 181006.0
2018-Jul-12 17:00N 45°06' W 086°12'634.5 140 / 221006.3
2018-Jul-12 16:49N 45°00' W 086°16'1214.7
2018-Jul-12 16:00N 45°12' W 086°12'4 6.0 170 / 101007.8
2018-Jul-12 15:16N 45°16' W 086°12'310.7
2018-Jul-12 15:00N 45°19' W 086°11'510.6
2018-Jul-12 14:30N 45°24' W 086°10'510.5
2018-Jul-12 14:00N 45°30' W 086°09'7582.6
2018-Jul-12 14:00N 45°36' W 086°06'2 3.7 160 / 171006.3
2018-Jul-12 13:30N 45°35' W 086°08'510.3
2018-Jul-12 13:01N 45°40' W 086°07'5308.4
2018-Jul-12 13:00N 45°42' W 086°00'1 2.7 150 / 181005.7
2018-Jul-12 12:30N 45°43' W 086°01'510.6
2018-Jul-12 12:01N 45°45' W 085°55'5318.9
2018-Jul-12 12:00N 45°48' W 085°48'0 0.5 180 / 191006.1
2018-Jul-12 11:30N 45°48' W 085°48'510.5
2018-Jul-12 11:01N 45°51' W 085°42'5293.8
2018-Jul-12 11:00N 45°54' W 085°36'1 1.9 180 / 221005.5
2018-Jul-12 10:31N 45°53' W 085°35'510.5
2018-Jul-12 10:01N 45°54' W 085°27'7390.5
2018-Jul-12 10:00N 45°54' W 085°18'2 3.6 180 / 221004.8
2018-Jul-12 09:30N 45°53' W 085°20'510.8
2018-Jul-12 09:01N 45°52' W 085°12'5283.7
2018-Jul-12 09:00N 45°54' W 085°06'3 6.3 180 / 171005.3
2018-Jul-12 08:30N 45°51' W 085°05'510.9
2018-Jul-12 08:01N 45°50' W 084°57'7388.7
2018-Jul-12 08:00N 45°48' W 084°48'2 3.4 170 / 101005.9
2018-Jul-12 07:30N 45°49' W 084°49'510.6
2018-Jul-12 07:00N 45°49' W 084°42'4345.7
2018-Jul-12 07:00N 45°48' W 084°36'3 6.2 160 / 101006.1
2018-Jul-12 06:29N 45°51' W 084°35'510.8
2018-Jul-12 06:00N 45°52' W 084°27'7593.9
2018-Jul-12 06:00N 45°54' W 084°18'6 6.0 080 / 61006.7
2018-Jul-12 05:00N 46°00' W 084°18'318.5 040 / 21006.4
2018-Jul-12 04:49N 45°58' W 084°15'2 4.8
2018-Jul-12 04:28N 45°59' W 084°16'1 3.1
2018-Jul-12 04:00N 46°00' W 084°18'0 0.0 320 / 31007.1
2018-Jul-12 03:00N 46°00' W 084°18'0 0.0 310 / 41007.1
2018-Jul-12 02:00N 46°00' W 084°18'1 5.0 310 / 21006.8
2018-Jul-12 01:41N 45°59' W 084°16'1 2.1
2018-Jul-12 01:00N 46°00' W 084°18'0 0.0 210 / 41006.9
2018-Jul-12 00:00N 46°00' W 084°18'0 0.0 220 / 51006.6
2018-Jul-11 23:00N 46°00' W 084°18'0 0.0 210 / 81006.7
2018-Jul-11 22:00N 46°00' W 084°18'0 0.0 210 / 81006.8
2018-Jul-11 21:00N 46°00' W 084°18'0 0.0 200 / 91007.1
2018-Jul-11 20:00N 46°00' W 084°18'0 0.0 210 / 111007.7
2018-Jul-11 19:00N 46°00' W 084°18'0 0.0 200 / 101010.1
2018-Jul-11 18:00N 46°00' W 084°18'4 4.2 220 / 10
2018-Jul-11 17:00N 46°00' W 084°12'3 5.6 260 / 8
2018-Jul-11 16:26N 45°57' W 084°14'817.4
2018-Jul-11 16:00N 45°54' W 084°24'364.1 010 / 6
2018-Jul-11 15:56N 45°54' W 084°19'511.7
2018-Jul-11 15:30N 45°52' W 084°26'1223.3
2018-Jul-11 15:00N 45°48' W 084°42'533.8 360 / 10
2018-Jul-11 14:51N 45°51' W 084°36'410.9
2018-Jul-11 14:30N 45°49' W 084°42'510.6
2018-Jul-11 14:00N 45°49' W 084°49'8595.9
2018-Jul-11 14:00N 45°48' W 085°00'2 5.0 360 / 6
2018-Jul-11 13:30N 45°50' W 084°57'611.4
2018-Jul-11 13:00N 45°50' W 085°06'2160.6
2018-Jul-11 13:00N 45°48' W 085°06'2 5.1 340 / 8
2018-Jul-11 12:30N 45°46' W 085°09'510.5
2018-Jul-11 12:00N 45°42' W 085°13'7562.2
2018-Jul-11 12:00N 45°36' W 085°18'1 3.0 340 / 8
2018-Jul-11 11:30N 45°37' W 085°18'611.7
2018-Jul-11 11:00N 45°33' W 085°23'6441.8
2018-Jul-11 11:00N 45°30' W 085°30'3 5.1
2018-Jul-11 10:30N 45°28' W 085°28'1222.5
2018-Jul-11 10:00N 45°18' W 085°36'5202.8
2018-Jul-11 09:58N 45°23' W 085°33'511.7
2018-Jul-11 09:30N 45°19' W 085°38'611.7
2018-Jul-11 09:00N 45°14' W 085°42'9686.1
2018-Jul-11 09:00N 45°06' W 085°48'3 6.4 020 / 12
2018-Jul-11 08:30N 45°09' W 085°47'611.4
2018-Jul-11 08:00N 45°04' W 085°52'7553.1
2018-Jul-11 08:00N 45°00' W 086°00'2 3.7 030 / 13
2018-Jul-11 07:30N 45°00' W 085°57'611.7
2018-Jul-11 07:00N 44°57' W 086°05'64389.1
2018-Jul-11 07:00N 44°54' W 086°12'1 1.5 060 / 14
2018-Jul-11 06:30N 44°55' W 086°12'1326.5
2018-Jul-11 06:00N 44°42' W 086°18'7 7.4 030 / 12
2018-Jul-11 05:00N 44°36' W 086°24'1312.7 010 / 12
2018-Jul-11 04:00N 44°24' W 086°30'167166.7
2018-Jul-11 03:00N 41°42' W 087°24'0 0.0
2018-Jul-11 02:00N 41°42' W 087°24'0 0.0
2018-Jul-11 01:00N 41°42' W 087°24'0 0.0
2018-Jul-11 00:00N 41°42' W 087°24'0 0.0
2018-Jul-10 23:00N 41°42' W 087°24'0 0.0
2018-Jul-10 22:00N 41°42' W 087°24'0 0.0
2018-Jul-10 21:00N 41°42' W 087°24'0 0.0
2018-Jul-10 20:00N 41°42' W 087°24'0 0.0
2018-Jul-10 19:00N 41°42' W 087°24'0 0.0
2018-Jul-10 18:00N 41°42' W 087°24'0 0.0
2018-Jul-10 17:00N 41°42' W 087°24'0 0.0
2018-Jul-10 16:00N 41°42' W 087°24'0 0.0
2018-Jul-10 15:00N 41°42' W 087°24'0 0.0
2018-Jul-10 14:00N 41°42' W 087°24'0 0.0
2018-Jul-10 13:00N 41°42' W 087°24'0 0.0
2018-Jul-10 12:00N 41°42' W 087°24'0 0.0
2018-Jul-10 11:00N 41°42' W 087°24'0 0.0
2018-Jul-10 10:00N 41°42' W 087°24'0 0.0
2018-Jul-10 09:00N 41°42' W 087°24'0 0.0
2018-Jul-10 08:00N 41°42' W 087°24'0 0.0
2018-Jul-10 07:00N 41°42' W 087°24'0 0.0
2018-Jul-10 05:00N 41°42' W 087°24'0 0.0
2018-Jul-10 04:00N 41°42' W 087°24'0 0.0
2018-Jul-10 03:00N 41°42' W 087°24'0 0.0
2018-Jul-10 02:00N 41°42' W 087°24'0 0.0
2018-Jul-10 01:00N 41°42' W 087°24'0 0.0
2018-Jul-10 00:00N 41°42' W 087°24'0 0.0
2018-Jul-09 23:00N 41°42' W 087°24'0 0.0
2018-Jul-09 22:00N 41°42' W 087°24'0 0.0
2018-Jul-09 21:00N 41°42' W 087°24'0 0.0
2018-Jul-09 20:00N 41°42' W 087°24'0 0.0
2018-Jul-09 19:00N 41°42' W 087°24'0 0.0
2018-Jul-09 18:00N 41°42' W 087°24'0 0.0
2018-Jul-09 17:00N 41°42' W 087°24'0 0.0
2018-Jul-09 16:00N 41°42' W 087°24'0 0.0
2018-Jul-09 15:00N 41°42' W 087°24'0 0.0
2018-Jul-09 14:00N 41°42' W 087°24'0 0.0
2018-Jul-09 13:00N 41°42' W 087°24'0 0.0
2018-Jul-09 02:00N 41°42' W 087°24'4 4.5 110 / 18
2018-Jul-09 01:00N 41°42' W 087°30'1212.0 110 / 18
2018-Jul-09 00:00N 41°54' W 087°30'1312.8 120 / 18
2018-Jul-08 23:00N 42°06' W 087°24'7 7.5 120 / 20
2018-Jul-08 22:00N 42°12' W 087°18'8410.5 120 / 19
2018-Jul-08 14:00N 43°30' W 086°36'1212.0 160 / 19
2018-Jul-08 13:00N 43°42' W 086°36'1212.0 140 / 20
2018-Jul-08 12:00N 43°54' W 086°36'6 6.0 150 / 16
2018-Jul-08 11:00N 44°00' W 086°36'1312.8 160 / 15
2018-Jul-08 10:00N 44°12' W 086°30'1312.7 160 / 17
2018-Jul-08 09:00N 44°24' W 086°24'1212.0 170 / 19
2018-Jul-08 08:00N 44°36' W 086°24'13 6.9 110 / 21
2018-Jul-08 06:02N 44°49' W 086°18'310.4
2018-Jul-08 05:46N 44°51' W 086°18'310.4
2018-Jul-08 05:29N 44°54' W 086°17'510.5
2018-Jul-08 05:01N 44°59' W 086°16'510.5
2018-Jul-08 04:30N 45°05' W 086°15'510.6
2018-Jul-08 04:00N 45°10' W 086°13'610.6
2018-Jul-08 03:28N 45°16' W 086°12'510.5
2018-Jul-08 03:00N 45°20' W 086°11'510.4
2018-Jul-08 02:31N 45°25' W 086°10'510.6
2018-Jul-08 02:00N 45°31' W 086°09'510.7
2018-Jul-08 01:31N 45°36' W 086°08'510.6
2018-Jul-08 01:01N 45°41' W 086°06'510.6
2018-Jul-08 00:30N 45°45' W 086°02'510.4
2018-Jul-08 00:00N 45°50' W 085°57'510.2
2018-Jul-07 23:31N 45°54' W 085°53'4 7.3
2018-Jul-07 23:00N 45°58' W 085°53'1 1.0
2018-Jul-07 22:26N 45°58' W 085°52'2 5.0
2018-Jul-07 22:00N 46°00' W 085°54'2 9.1 230 / 19
2018-Jul-07 21:44N 45°58' W 085°52'0 0.1
2018-Jul-07 21:29N 45°58' W 085°52'2 4.6
2018-Jul-07 21:00N 46°00' W 085°54'22695.5 210 / 18
2018-Jul-07 20:59N 45°58' W 085°52'0 0.0
2018-Jul-07 20:29N 45°58' W 085°52'2 4.5
2018-Jul-07 20:00N 46°00' W 085°54'244.2 210 / 18
2018-Jul-07 19:56N 45°58' W 085°52'0 0.0
2018-Jul-07 19:29N 45°58' W 085°52'0 0.1
2018-Jul-07 19:00N 45°58' W 085°52'2140.6
2018-Jul-07 19:00N 46°00' W 085°54'2 4.7 210 / 18
2018-Jul-07 18:30N 45°58' W 085°52'0 0.0
2018-Jul-07 18:00N 45°58' W 085°52'2144.5
2018-Jul-07 18:00N 46°00' W 085°54'2 4.7 200 / 14
2018-Jul-07 17:30N 45°58' W 085°52'0 0.0
2018-Jul-07 17:00N 45°58' W 085°52'2142.6
2018-Jul-07 17:00N 46°00' W 085°54'2 4.7 200 / 14
2018-Jul-07 16:30N 45°58' W 085°52'2 4.5
2018-Jul-07 16:00N 46°00' W 085°54'258.2 220 / 18
2018-Jul-07 15:57N 45°58' W 085°52'0 0.0
2018-Jul-07 15:30N 45°58' W 085°52'0 0.0
2018-Jul-07 15:00N 45°58' W 085°52'2143.8
2018-Jul-07 15:00N 46°00' W 085°54'2 4.7 220 / 18
2018-Jul-07 14:30N 45°58' W 085°52'0 0.0
2018-Jul-07 14:00N 45°58' W 085°52'2140.4
2018-Jul-07 14:00N 46°00' W 085°54'2 4.7 200 / 11
2018-Jul-07 13:30N 45°58' W 085°52'0 0.0
2018-Jul-07 13:00N 45°58' W 085°52'2139.7
2018-Jul-07 13:00N 46°00' W 085°54'2 4.7 240 / 11
2018-Jul-07 12:30N 45°58' W 085°52'1 2.1
2018-Jul-07 12:00N 45°57' W 085°53'3196.1
2018-Jul-07 12:00N 45°54' W 085°54'2 5.0 250 / 12
2018-Jul-07 11:30N 45°56' W 085°53'3 5.4
2018-Jul-07 11:00N 45°54' W 085°53'7459.2
2018-Jul-07 11:00N 45°48' W 086°00'2 5.1 240 / 11
2018-Jul-07 10:30N 45°50' W 085°57'510.2
2018-Jul-07 10:00N 45°45' W 086°02'5290.9
2018-Jul-07 10:00N 45°42' W 086°06'1 1.1 230 / 11
2018-Jul-07 09:30N 45°41' W 086°06'4 8.6
2018-Jul-07 09:00N 45°37' W 086°07'4 8.7
2018-Jul-07 08:30N 45°33' W 086°08'4 8.7
2018-Jul-07 08:00N 45°29' W 086°08'5 8.9
2018-Jul-07 07:29N 45°24' W 086°09'4 8.9
2018-Jul-07 07:00N 45°20' W 086°10'5 8.9
2018-Jul-07 06:24N 45°14' W 086°11'2115.0
2018-Jul-07 05:00N 44°54' W 086°18'1212.0 290 / 8
2018-Jul-07 04:00N 44°42' W 086°18'7 7.4 330 / 11
2018-Jul-07 03:00N 44°36' W 086°24'1312.7 320 / 17
2018-Jul-07 02:00N 44°24' W 086°30'1212.0 340 / 21
2018-Jul-07 01:00N 44°12' W 086°30'1312.8 340 / 25
2018-Jul-07 00:00N 44°00' W 086°36'1212.0 340 / 28
2018-Jul-06 23:00N 43°48' W 086°36'6 6.0 340 / 30
2018-Jul-06 22:00N 43°42' W 086°36'1212.0 330 / 31
2018-Jul-06 21:00N 43°30' W 086°36'104 5.5 320 / 29
2018-Jul-06 02:00N 41°54' W 087°30'1312.8 250 / 13
2018-Jul-06 01:00N 42°06' W 087°24'8610.7 250 / 18
2018-Jul-05 17:00N 43°24' W 086°36'1212.0 220 / 11
2018-Jul-05 16:00N 43°36' W 086°36'1212.0 210 / 11
2018-Jul-05 15:00N 43°48' W 086°36'1212.0 200 / 11
2018-Jul-05 14:00N 44°00' W 086°36'7 7.4 180 / 15
2018-Jul-05 13:00N 44°06' W 086°30'   160 / 16
Track history (hours):
 
Tides and Currents Weather Stations Pressure Air Temp Water Temp Dewpoint Dewpoint Depression Visibility Wind Speed Wind Dir Waves Ship Positions

Wilfred Sykes

Owner: CENTRAL MARINE LOGISTICS, INC, GRIFFITH, IN. More information available from US FCC via Universal Licensing System and Coast Guard Vessel Documentation Center.

Last reported at 2018-Jul-15 12:46 UTC. Time now 2018-Jul-17 13:36 UTC.
Position N 46°30' W 084°36'.

Length 219 m; draft 6.2 m.

Type: Cargo ship. MMSI: 367909800.

Date/timePositionNaut miles runAvg speedWind from/ knotsBaromVisibWave heightAir tempDewpointWater temp
2018-Jul-15 12:46N 46°30' W 084°36'310.6
2018-Jul-15 12:28N 46°28' W 084°33'4 7.8
2018-Jul-15 11:58N 46°28' W 084°28'20 4.7
2018-Jul-15 07:46N 46°15' W 084°06'2 7.9
2018-Jul-15 07:30N 46°13' W 084°07'5 9.1
2018-Jul-15 07:00N 46°09' W 084°03'8 9.4
2018-Jul-15 06:12N 46°03' W 083°57'5 9.3
2018-Jul-15 05:43N 45°60' W 083°53'211.3
2018-Jul-15 05:30N 45°57' W 083°54'511.0
2018-Jul-15 05:00N 45°54' W 083°60'611.8
2018-Jul-15 04:30N 45°51' W 084°07'611.8
2018-Jul-15 04:00N 45°51' W 084°16'611.9
2018-Jul-15 03:30N 45°51' W 084°24'611.6
2018-Jul-15 02:59N 45°51' W 084°33'611.3
2018-Jul-15 02:27N 45°49' W 084°41'511.4
2018-Jul-15 02:00N 45°49' W 084°49'1311.4
2018-Jul-15 00:53N 45°50' W 085°07'4 9.9
2018-Jul-15 00:29N 45°46' W 085°09'510.8
2018-Jul-14 23:59N 45°42' W 085°13'611.3
2018-Jul-14 23:30N 45°38' W 085°18'611.3
2018-Jul-14 22:59N 45°33' W 085°23'511.3
2018-Jul-14 22:30N 45°29' W 085°28'611.4
2018-Jul-14 22:00N 45°24' W 085°32'611.7
2018-Jul-14 21:30N 45°19' W 085°37'611.8
2018-Jul-14 21:00N 45°14' W 085°42'611.7
2018-Jul-14 20:30N 45°10' W 085°47'611.5
2018-Jul-14 20:00N 45°05' W 085°52'214 8.5
2018-Jul-13 19:00N 41°42' W 087°24'0 0.0 230 / 13997.2
2018-Jul-13 18:00N 41°42' W 087°24'0 0.0 230 / 15996.0
2018-Jul-13 17:00N 41°42' W 087°24'0 0.0 230 / 14996.0
2018-Jul-13 16:00N 41°42' W 087°24'0 0.0 190 / 16996.3
2018-Jul-13 15:00N 41°42' W 087°24'0 0.0 200 / 161000.6
2018-Jul-13 14:00N 41°42' W 087°24'7 7.5 210 / 17998.8
2018-Jul-13 13:00N 41°48' W 087°30'1312.8 170 / 17999.3
2018-Jul-13 12:00N 42°00' W 087°24'6 6.0 170 / 171001.0
2018-Jul-13 11:00N 42°06' W 087°24'8610.7 180 / 20998.4
2018-Jul-13 03:00N 43°24' W 086°36'6 6.0 140 / 231002.0
2018-Jul-13 02:00N 43°30' W 086°36'1212.0 150 / 271003.0
2018-Jul-13 01:00N 43°42' W 086°36'1212.0 160 / 281003.5
2018-Jul-13 00:00N 43°54' W 086°36'6 6.0 160 / 271004.3
2018-Jul-12 23:00N 44°00' W 086°36'1312.8 160 / 281003.9
2018-Jul-12 22:00N 44°12' W 086°30'1312.7 160 / 231004.8
2018-Jul-12 21:00N 44°24' W 086°24'6 6.0 160 / 291005.0
2018-Jul-12 20:00N 44°30' W 086°24'1312.7 170 / 341004.1
2018-Jul-12 19:00N 44°42' W 086°18'1212.0 180 / 291005.7
2018-Jul-12 18:00N 44°54' W 086°18'1312.7 140 / 181006.0
2018-Jul-12 17:00N 45°06' W 086°12'634.5 140 / 221006.3
2018-Jul-12 16:49N 45°00' W 086°16'1214.7
2018-Jul-12 16:00N 45°12' W 086°12'4 6.0 170 / 101007.8
2018-Jul-12 15:16N 45°16' W 086°12'310.7
2018-Jul-12 15:00N 45°19' W 086°11'510.6
2018-Jul-12 14:30N 45°24' W 086°10'510.5
2018-Jul-12 14:00N 45°30' W 086°09'7582.6
2018-Jul-12 14:00N 45°36' W 086°06'2 3.7 160 / 171006.3
2018-Jul-12 13:30N 45°35' W 086°08'510.3
2018-Jul-12 13:01N 45°40' W 086°07'5308.4
2018-Jul-12 13:00N 45°42' W 086°00'1 2.7 150 / 181005.7
2018-Jul-12 12:30N 45°43' W 086°01'510.6
2018-Jul-12 12:01N 45°45' W 085°55'5318.9
2018-Jul-12 12:00N 45°48' W 085°48'0 0.5 180 / 191006.1
2018-Jul-12 11:30N 45°48' W 085°48'510.5
2018-Jul-12 11:01N 45°51' W 085°42'5293.8
2018-Jul-12 11:00N 45°54' W 085°36'1 1.9 180 / 221005.5
2018-Jul-12 10:31N 45°53' W 085°35'510.5
2018-Jul-12 10:01N 45°54' W 085°27'7390.5
2018-Jul-12 10:00N 45°54' W 085°18'2 3.6 180 / 221004.8
2018-Jul-12 09:30N 45°53' W 085°20'510.8
2018-Jul-12 09:01N 45°52' W 085°12'5283.7
2018-Jul-12 09:00N 45°54' W 085°06'3 6.3 180 / 171005.3
2018-Jul-12 08:30N 45°51' W 085°05'510.9
2018-Jul-12 08:01N 45°50' W 084°57'7388.7
2018-Jul-12 08:00N 45°48' W 084°48'2 3.4 170 / 101005.9
2018-Jul-12 07:30N 45°49' W 084°49'510.6
2018-Jul-12 07:00N 45°49' W 084°42'4345.7
2018-Jul-12 07:00N 45°48' W 084°36'3 6.2 160 / 101006.1
2018-Jul-12 06:29N 45°51' W 084°35'510.8
2018-Jul-12 06:00N 45°52' W 084°27'7593.9
2018-Jul-12 06:00N 45°54' W 084°18'6 6.0 080 / 61006.7
2018-Jul-12 05:00N 46°00' W 084°18'318.5 040 / 21006.4
2018-Jul-12 04:49N 45°58' W 084°15'2 4.8
2018-Jul-12 04:28N 45°59' W 084°16'1 3.1
2018-Jul-12 04:00N 46°00' W 084°18'0 0.0 320 / 31007.1
2018-Jul-12 03:00N 46°00' W 084°18'0 0.0 310 / 41007.1
2018-Jul-12 02:00N 46°00' W 084°18'1 5.0 310 / 21006.8
2018-Jul-12 01:41N 45°59' W 084°16'1 2.1
2018-Jul-12 01:00N 46°00' W 084°18'0 0.0 210 / 41006.9
2018-Jul-12 00:00N 46°00' W 084°18'0 0.0 220 / 51006.6
2018-Jul-11 23:00N 46°00' W 084°18'0 0.0 210 / 81006.7
2018-Jul-11 22:00N 46°00' W 084°18'0 0.0 210 / 81006.8
2018-Jul-11 21:00N 46°00' W 084°18'0 0.0 200 / 91007.1
2018-Jul-11 20:00N 46°00' W 084°18'0 0.0 210 / 111007.7
2018-Jul-11 19:00N 46°00' W 084°18'0 0.0 200 / 101010.1
2018-Jul-11 18:00N 46°00' W 084°18'4 4.2 220 / 10
2018-Jul-11 17:00N 46°00' W 084°12'3 5.6 260 / 8
2018-Jul-11 16:26N 45°57' W 084°14'817.4
2018-Jul-11 16:00N 45°54' W 084°24'364.1 010 / 6
2018-Jul-11 15:56N 45°54' W 084°19'511.7
2018-Jul-11 15:30N 45°52' W 084°26'1223.3
2018-Jul-11 15:00N 45°48' W 084°42'533.8 360 / 10
2018-Jul-11 14:51N 45°51' W 084°36'410.9
2018-Jul-11 14:30N 45°49' W 084°42'510.6
2018-Jul-11 14:00N 45°49' W 084°49'8595.9
2018-Jul-11 14:00N 45°48' W 085°00'2 5.0 360 / 6
2018-Jul-11 13:30N 45°50' W 084°57'611.4
2018-Jul-11 13:00N 45°50' W 085°06'2160.6
2018-Jul-11 13:00N 45°48' W 085°06'2 5.1 340 / 8
2018-Jul-11 12:30N 45°46' W 085°09'510.5
2018-Jul-11 12:00N 45°42' W 085°13'7562.2
2018-Jul-11 12:00N 45°36' W 085°18'1 3.0 340 / 8
2018-Jul-11 11:30N 45°37' W 085°18'611.7
2018-Jul-11 11:00N 45°33' W 085°23'6441.8
2018-Jul-11 11:00N 45°30' W 085°30'3 5.1
2018-Jul-11 10:30N 45°28' W 085°28'1222.5
2018-Jul-11 10:00N 45°18' W 085°36'5202.8
2018-Jul-11 09:58N 45°23' W 085°33'511.7
2018-Jul-11 09:30N 45°19' W 085°38'611.7
2018-Jul-11 09:00N 45°14' W 085°42'9686.1
2018-Jul-11 09:00N 45°06' W 085°48'3 6.4 020 / 12
2018-Jul-11 08:30N 45°09' W 085°47'611.4
2018-Jul-11 08:00N 45°04' W 085°52'7553.1
2018-Jul-11 08:00N 45°00' W 086°00'2 3.7 030 / 13
2018-Jul-11 07:30N 45°00' W 085°57'611.7
2018-Jul-11 07:00N 44°57' W 086°05'64389.1
2018-Jul-11 07:00N 44°54' W 086°12'1 1.5 060 / 14
2018-Jul-11 06:30N 44°55' W 086°12'1326.5
2018-Jul-11 06:00N 44°42' W 086°18'7 7.4 030 / 12
2018-Jul-11 05:00N 44°36' W 086°24'1312.7 010 / 12
2018-Jul-11 04:00N 44°24' W 086°30'167166.7
2018-Jul-11 03:00N 41°42' W 087°24'0 0.0
2018-Jul-11 02:00N 41°42' W 087°24'0 0.0
2018-Jul-11 01:00N 41°42' W 087°24'0 0.0
2018-Jul-11 00:00N 41°42' W 087°24'0 0.0
2018-Jul-10 23:00N 41°42' W 087°24'0 0.0
2018-Jul-10 22:00N 41°42' W 087°24'0 0.0
2018-Jul-10 21:00N 41°42' W 087°24'0 0.0
2018-Jul-10 20:00N 41°42' W 087°24'0 0.0
2018-Jul-10 19:00N 41°42' W 087°24'0 0.0
2018-Jul-10 18:00N 41°42' W 087°24'0 0.0
2018-Jul-10 17:00N 41°42' W 087°24'0 0.0
2018-Jul-10 16:00N 41°42' W 087°24'0 0.0
2018-Jul-10 15:00N 41°42' W 087°24'0 0.0
2018-Jul-10 14:00N 41°42' W 087°24'0 0.0
2018-Jul-10 13:00N 41°42' W 087°24'0 0.0
2018-Jul-10 12:00N 41°42' W 087°24'0 0.0
2018-Jul-10 11:00N 41°42' W 087°24'0 0.0
2018-Jul-10 10:00N 41°42' W 087°24'0 0.0
2018-Jul-10 09:00N 41°42' W 087°24'0 0.0
2018-Jul-10 08:00N 41°42' W 087°24'0 0.0
2018-Jul-10 07:00N 41°42' W 087°24'0 0.0
2018-Jul-10 05:00N 41°42' W 087°24'0 0.0
2018-Jul-10 04:00N 41°42' W 087°24'0 0.0
2018-Jul-10 03:00N 41°42' W 087°24'0 0.0
2018-Jul-10 02:00N 41°42' W 087°24'0 0.0
2018-Jul-10 01:00N 41°42' W 087°24'0 0.0
2018-Jul-10 00:00N 41°42' W 087°24'0 0.0
2018-Jul-09 23:00N 41°42' W 087°24'0 0.0
2018-Jul-09 22:00N 41°42' W 087°24'0 0.0
2018-Jul-09 21:00N 41°42' W 087°24'0 0.0
2018-Jul-09 20:00N 41°42' W 087°24'0 0.0
2018-Jul-09 19:00N 41°42' W 087°24'0 0.0
2018-Jul-09 18:00N 41°42' W 087°24'0 0.0
2018-Jul-09 17:00N 41°42' W 087°24'0 0.0
2018-Jul-09 16:00N 41°42' W 087°24'0 0.0
2018-Jul-09 15:00N 41°42' W 087°24'0 0.0
2018-Jul-09 14:00N 41°42' W 087°24'0 0.0
2018-Jul-09 13:00N 41°42' W 087°24'0 0.0
2018-Jul-09 02:00N 41°42' W 087°24'4 4.5 110 / 18
2018-Jul-09 01:00N 41°42' W 087°30'1212.0 110 / 18
2018-Jul-09 00:00N 41°54' W 087°30'1312.8 120 / 18
2018-Jul-08 23:00N 42°06' W 087°24'7 7.5 120 / 20
2018-Jul-08 22:00N 42°12' W 087°18'8410.5 120 / 19
2018-Jul-08 14:00N 43°30' W 086°36'1212.0 160 / 19
2018-Jul-08 13:00N 43°42' W 086°36'1212.0 140 / 20
2018-Jul-08 12:00N 43°54' W 086°36'6 6.0 150 / 16
2018-Jul-08 11:00N 44°00' W 086°36'1312.8 160 / 15
2018-Jul-08 10:00N 44°12' W 086°30'1312.7 160 / 17
2018-Jul-08 09:00N 44°24' W 086°24'1212.0 170 / 19
2018-Jul-08 08:00N 44°36' W 086°24'13 6.9 110 / 21
2018-Jul-08 06:02N 44°49' W 086°18'310.4
2018-Jul-08 05:46N 44°51' W 086°18'310.4
2018-Jul-08 05:29N 44°54' W 086°17'510.5
2018-Jul-08 05:01N 44°59' W 086°16'510.5
2018-Jul-08 04:30N 45°05' W 086°15'510.6
2018-Jul-08 04:00N 45°10' W 086°13'610.6
2018-Jul-08 03:28N 45°16' W 086°12'510.5
2018-Jul-08 03:00N 45°20' W 086°11'510.4
2018-Jul-08 02:31N 45°25' W 086°10'510.6
2018-Jul-08 02:00N 45°31' W 086°09'510.7
2018-Jul-08 01:31N 45°36' W 086°08'510.6
2018-Jul-08 01:01N 45°41' W 086°06'510.6
2018-Jul-08 00:30N 45°45' W 086°02'510.4
2018-Jul-08 00:00N 45°50' W 085°57'510.2
2018-Jul-07 23:31N 45°54' W 085°53'4 7.3
2018-Jul-07 23:00N 45°58' W 085°53'1 1.0
2018-Jul-07 22:26N 45°58' W 085°52'2 5.0
2018-Jul-07 22:00N 46°00' W 085°54'2 9.1 230 / 19
2018-Jul-07 21:44N 45°58' W 085°52'0 0.1
2018-Jul-07 21:29N 45°58' W 085°52'2 4.6
2018-Jul-07 21:00N 46°00' W 085°54'22695.5 210 / 18
2018-Jul-07 20:59N 45°58' W 085°52'0 0.0
2018-Jul-07 20:29N 45°58' W 085°52'2 4.5
2018-Jul-07 20:00N 46°00' W 085°54'244.2 210 / 18
2018-Jul-07 19:56N 45°58' W 085°52'0 0.0
2018-Jul-07 19:29N 45°58' W 085°52'0 0.1
2018-Jul-07 19:00N 45°58' W 085°52'2140.6
2018-Jul-07 19:00N 46°00' W 085°54'2 4.7 210 / 18
2018-Jul-07 18:30N 45°58' W 085°52'0 0.0
2018-Jul-07 18:00N 45°58' W 085°52'2144.5
2018-Jul-07 18:00N 46°00' W 085°54'2 4.7 200 / 14
2018-Jul-07 17:30N 45°58' W 085°52'0 0.0
2018-Jul-07 17:00N 45°58' W 085°52'2142.6
2018-Jul-07 17:00N 46°00' W 085°54'2 4.7 200 / 14
2018-Jul-07 16:30N 45°58' W 085°52'2 4.5
2018-Jul-07 16:00N 46°00' W 085°54'258.2 220 / 18
2018-Jul-07 15:57N 45°58' W 085°52'0 0.0
2018-Jul-07 15:30N 45°58' W 085°52'0 0.0
2018-Jul-07 15:00N 45°58' W 085°52'2143.8
2018-Jul-07 15:00N 46°00' W 085°54'2 4.7 220 / 18
2018-Jul-07 14:30N 45°58' W 085°52'0 0.0
2018-Jul-07 14:00N 45°58' W 085°52'2140.4
2018-Jul-07 14:00N 46°00' W 085°54'2 4.7 200 / 11
2018-Jul-07 13:30N 45°58' W 085°52'0 0.0
2018-Jul-07 13:00N 45°58' W 085°52'2139.7
2018-Jul-07 13:00N 46°00' W 085°54'2 4.7 240 / 11
2018-Jul-07 12:30N 45°58' W 085°52'1 2.1
2018-Jul-07 12:00N 45°57' W 085°53'3196.1
2018-Jul-07 12:00N 45°54' W 085°54'2 5.0 250 / 12
2018-Jul-07 11:30N 45°56' W 085°53'3 5.4
2018-Jul-07 11:00N 45°54' W 085°53'7459.2
2018-Jul-07 11:00N 45°48' W 086°00'2 5.1 240 / 11
2018-Jul-07 10:30N 45°50' W 085°57'510.2
2018-Jul-07 10:00N 45°45' W 086°02'5290.9
2018-Jul-07 10:00N 45°42' W 086°06'1 1.1 230 / 11
2018-Jul-07 09:30N 45°41' W 086°06'4 8.6
2018-Jul-07 09:00N 45°37' W 086°07'4 8.7
2018-Jul-07 08:30N 45°33' W 086°08'4 8.7
2018-Jul-07 08:00N 45°29' W 086°08'5 8.9
2018-Jul-07 07:29N 45°24' W 086°09'4 8.9
2018-Jul-07 07:00N 45°20' W 086°10'5 8.9
2018-Jul-07 06:24N 45°14' W 086°11'2115.0
2018-Jul-07 05:00N 44°54' W 086°18'1212.0 290 / 8
2018-Jul-07 04:00N 44°42' W 086°18'7 7.4 330 / 11
2018-Jul-07 03:00N 44°36' W 086°24'1312.7 320 / 17
2018-Jul-07 02:00N 44°24' W 086°30'1212.0 340 / 21
2018-Jul-07 01:00N 44°12' W 086°30'1312.8 340 / 25
2018-Jul-07 00:00N 44°00' W 086°36'1212.0 340 / 28
2018-Jul-06 23:00N 43°48' W 086°36'6 6.0 340 / 30
2018-Jul-06 22:00N 43°42' W 086°36'1212.0 330 / 31
2018-Jul-06 21:00N 43°30' W 086°36'104 5.5 320 / 29
2018-Jul-06 02:00N 41°54' W 087°30'1312.8 250 / 13
2018-Jul-06 01:00N 42°06' W 087°24'8610.7 250 / 18
2018-Jul-05 17:00N 43°24' W 086°36'1212.0 220 / 11
2018-Jul-05 16:00N 43°36' W 086°36'1212.0 210 / 11
2018-Jul-05 15:00N 43°48' W 086°36'1212.0 200 / 11
2018-Jul-05 14:00N 44°00' W 086°36'7 7.4 180 / 15
2018-Jul-05 13:00N 44°06' W 086°30'   160 / 16

Dump ship's entire track history